Startpagina
METAR-TAF:

METAR-TAF

Vliegvelden :

Majuro, Majuro Atoll, Marshalleilanden

Marshall Islands International Airport

breedte: 07-04N, lengte: 171-17E, hoogte: 2 m

Actueel weer

Dit bericht is 7 uur en het 18 minuten geleden gemaakt, om 23:54 UTC
Wind 14 kt uit het oostnoordoosten
Temperatuur 30°C
Vochtigheid 75%
Druk 1012 hPa
Zicht: 24.1 km
Weinig wolken op 1500 ft
Verspreide wolken op 5000 ft
Gebroken wolken op 30000 ft

METAR: PKMJ 262354Z 06014KT 15SM FEW015 SCT050 BKN300 30/25 A2987

Tijdstip: 19:12 (07:12 UTC)

Verwachting

Dit bericht is 1 uur en het 39 minuten geleden gemaakt, om 05:33 UTC
Verwachting geldig van 27 om 06 UTC tot 28 om 06 UTC
Wind 11 kt uit het oosten
Zicht: 10 km
Verspreide wolken op 1500 ft
Verspreide wolken op 5000 ft
buien in de omgeving

TAF: PKMJ 270533Z 2706/2806 08011KT P6SM VCSH SCT015 SCT050

Waarnemingen en weersverwachtingen van meer dan 4000 vliegvelden (METAR en TAF).

De beschikbare stations zijn de gele en rode punten op de kaart.

Ga met uw muis naar het station om de naam te zien.

Klik dan om waarnemingen en weersverwachtingen te zien.

kaart wijzigen: klik op de groene knoppen met een zwart kruis om in te zoomen, op de groene knop met een streepje om uit te zoomen of op de groene pijlen voor aangrenzende kaarten.


METAR-TAF: